sensor_id;sensor_type;location;lat;lon;timestamp;P1;durP1;ratioP1;P2;durP2;ratioP2
4174;SDS011;2101;48.290;14.382;2023-05-10T00:03:29;18.13;;;2.37;;
4174;SDS011;2101;48.290;14.382;2023-05-10T00:06:58;15.07;;;2.10;;
4174;SDS011;2101;48.290;14.382;2023-05-10T00:10:19;13.77;;;1.80;;
4174;SDS011;2101;48.290;14.382;2023-05-10T00:13:30;14.63;;;2.03;;
4174;SDS011;2101;48.290;14.382;2023-05-10T00:16:25;14.10;;;1.80;;
4174;SDS011;2101;48.290;14.382;2023-05-10T00:19:15;13.43;;;1.93;;
4174;SDS011;2101;48.290;14.382;2023-05-10T00:22:21;14.03;;;2.03;;
4174;SDS011;2101;48.290;14.382;2023-05-10T00:25:28;15.00;;;2.30;;
4174;SDS011;2101;48.290;14.382;2023-05-10T00:28:12;14.80;;;2.20;;
4174;SDS011;2101;48.290;14.382;2023-05-10T00:31:34;13.73;;;2.17;;
4174;SDS011;2101;48.290;14.382;2023-05-10T00:34:25;13.60;;;1.93;;
4174;SDS011;2101;48.290;14.382;2023-05-10T00:36:52;15.00;;;2.20;;
4174;SDS011;2101;48.290;14.382;2023-05-10T00:39:18;13.60;;;2.10;;
4174;SDS011;2101;48.290;14.382;2023-05-10T00:41:44;13.13;;;1.80;;
4174;SDS011;2101;48.290;14.382;2023-05-10T00:44:10;13.63;;;2.20;;
4174;SDS011;2101;48.290;14.382;2023-05-10T00:46:38;14.80;;;2.30;;
4174;SDS011;2101;48.290;14.382;2023-05-10T00:49:04;13.30;;;1.90;;
4174;SDS011;2101;48.290;14.382;2023-05-10T00:51:30;12.83;;;1.57;;
4174;SDS011;2101;48.290;14.382;2023-05-10T00:53:56;13.70;;;2.20;;
4174;SDS011;2101;48.290;14.382;2023-05-10T00:56:22;13.13;;;1.70;;
4174;SDS011;2101;48.290;14.382;2023-05-10T00:58:49;18.43;;;2.40;;
4174;SDS011;2101;48.290;14.382;2023-05-10T01:01:15;14.20;;;2.00;;
4174;SDS011;2101;48.290;14.382;2023-05-10T01:03:42;15.10;;;2.30;;
4174;SDS011;2101;48.290;14.382;2023-05-10T01:06:08;15.23;;;1.97;;
4174;SDS011;2101;48.290;14.382;2023-05-10T01:08:35;14.17;;;1.83;;
4174;SDS011;2101;48.290;14.382;2023-05-10T01:11:01;13.73;;;1.70;;
4174;SDS011;2101;48.290;14.382;2023-05-10T01:15:58;13.40;;;1.93;;
4174;SDS011;2101;48.290;14.382;2023-05-10T01:18:27;14.30;;;2.00;;
4174;SDS011;2101;48.290;14.382;2023-05-10T01:21:04;13.33;;;2.00;;
4174;SDS011;2101;48.290;14.382;2023-05-10T01:33:41;17.03;;;1.77;;
4174;SDS011;2101;48.290;14.382;2023-05-10T01:43:33;13.37;;;1.83;;
4174;SDS011;2101;48.290;14.382;2023-05-10T01:46:02;16.73;;;2.10;;
4174;SDS011;2101;48.290;14.382;2023-05-10T01:48:35;15.30;;;2.10;;
4174;SDS011;2101;48.290;14.382;2023-05-10T01:51:01;14.90;;;2.10;;
4174;SDS011;2101;48.290;14.382;2023-05-10T01:53:28;14.90;;;1.83;;
4174;SDS011;2101;48.290;14.382;2023-05-10T01:55:55;13.40;;;1.60;;
4174;SDS011;2101;48.290;14.382;2023-05-10T01:58:25;14.30;;;2.20;;
4174;SDS011;2101;48.290;14.382;2023-05-10T02:00:52;13.00;;;1.70;;
4174;SDS011;2101;48.290;14.382;2023-05-10T02:03:23;17.63;;;2.13;;
4174;SDS011;2101;48.290;14.382;2023-05-10T02:05:49;14.33;;;1.80;;
4174;SDS011;2101;48.290;14.382;2023-05-10T02:08:16;17.30;;;2.10;;
4174;SDS011;2101;48.290;14.382;2023-05-10T02:10:44;13.80;;;1.43;;
4174;SDS011;2101;48.290;14.382;2023-05-10T02:13:10;12.70;;;1.47;;
4174;SDS011;2101;48.290;14.382;2023-05-10T02:15:37;14.80;;;2.10;;
4174;SDS011;2101;48.290;14.382;2023-05-10T02:18:04;14.37;;;1.97;;
4174;SDS011;2101;48.290;14.382;2023-05-10T02:20:31;12.93;;;1.70;;
4174;SDS011;2101;48.290;14.382;2023-05-10T02:22:58;16.50;;;2.10;;
4174;SDS011;2101;48.290;14.382;2023-05-10T02:25:24;16.10;;;2.37;;
4174;SDS011;2101;48.290;14.382;2023-05-10T02:27:51;20.80;;;2.40;;
4174;SDS011;2101;48.290;14.382;2023-05-10T02:30:20;13.27;;;1.60;;
4174;SDS011;2101;48.290;14.382;2023-05-10T02:32:46;16.27;;;2.20;;
4174;SDS011;2101;48.290;14.382;2023-05-10T02:35:13;13.47;;;2.07;;
4174;SDS011;2101;48.290;14.382;2023-05-10T02:37:40;13.70;;;1.93;;
4174;SDS011;2101;48.290;14.382;2023-05-10T02:40:07;13.50;;;1.70;;
4174;SDS011;2101;48.290;14.382;2023-05-10T02:42:35;12.50;;;1.60;;
4174;SDS011;2101;48.290;14.382;2023-05-10T02:45:04;13.60;;;1.80;;
4174;SDS011;2101;48.290;14.382;2023-05-10T02:47:31;27.67;;;1.97;;
4174;SDS011;2101;48.290;14.382;2023-05-10T02:49:58;13.70;;;2.10;;
4174;SDS011;2101;48.290;14.382;2023-05-10T02:52:25;12.60;;;1.70;;
4174;SDS011;2101;48.290;14.382;2023-05-10T02:54:54;12.70;;;1.63;;
4174;SDS011;2101;48.290;14.382;2023-05-10T02:57:31;12.83;;;1.73;;
4174;SDS011;2101;48.290;14.382;2023-05-10T02:59:58;14.50;;;2.10;;
4174;SDS011;2101;48.290;14.382;2023-05-10T03:02:25;14.00;;;1.90;;
4174;SDS011;2101;48.290;14.382;2023-05-10T03:04:51;13.80;;;1.93;;
4174;SDS011;2101;48.290;14.382;2023-05-10T03:07:17;15.13;;;2.10;;
4174;SDS011;2101;48.290;14.382;2023-05-10T03:09:50;15.30;;;2.20;;
4174;SDS011;2101;48.290;14.382;2023-05-10T03:12:23;14.10;;;2.30;;
4174;SDS011;2101;48.290;14.382;2023-05-10T03:14:59;13.60;;;1.80;;
4174;SDS011;2101;48.290;14.382;2023-05-10T03:17:39;12.70;;;1.57;;
4174;SDS011;2101;48.290;14.382;2023-05-10T03:20:08;20.93;;;1.87;;
4174;SDS011;2101;48.290;14.382;2023-05-10T03:22:37;13.23;;;1.70;;
4174;SDS011;2101;48.290;14.382;2023-05-10T03:25:05;12.60;;;1.60;;
4174;SDS011;2101;48.290;14.382;2023-05-10T03:27:32;13.37;;;1.77;;
4174;SDS011;2101;48.290;14.382;2023-05-10T03:29:58;13.53;;;1.90;;
4174;SDS011;2101;48.290;14.382;2023-05-10T03:32:24;13.70;;;2.07;;
4174;SDS011;2101;48.290;14.382;2023-05-10T03:34:52;12.40;;;1.47;;
4174;SDS011;2101;48.290;14.382;2023-05-10T03:37:24;14.03;;;2.10;;
4174;SDS011;2101;48.290;14.382;2023-05-10T03:39:50;15.10;;;2.70;;
4174;SDS011;2101;48.290;14.382;2023-05-10T03:42:16;13.67;;;1.90;;
4174;SDS011;2101;48.290;14.382;2023-05-10T03:44:43;14.80;;;2.00;;
4174;SDS011;2101;48.290;14.382;2023-05-10T03:47:12;13.07;;;1.70;;
4174;SDS011;2101;48.290;14.382;2023-05-10T03:49:38;16.47;;;2.13;;
4174;SDS011;2101;48.290;14.382;2023-05-10T03:52:04;14.13;;;2.20;;
4174;SDS011;2101;48.290;14.382;2023-05-10T03:54:30;12.43;;;1.23;;
4174;SDS011;2101;48.290;14.382;2023-05-10T03:56:58;12.97;;;1.70;;
4174;SDS011;2101;48.290;14.382;2023-05-10T03:59:26;14.27;;;1.90;;
4174;SDS011;2101;48.290;14.382;2023-05-10T04:01:52;13.80;;;1.97;;
4174;SDS011;2101;48.290;14.382;2023-05-10T04:04:18;13.23;;;1.90;;
4174;SDS011;2101;48.290;14.382;2023-05-10T04:06:45;12.23;;;1.40;;
4174;SDS011;2101;48.290;14.382;2023-05-10T04:09:12;14.27;;;1.80;;
4174;SDS011;2101;48.290;14.382;2023-05-10T04:11:39;14.63;;;1.83;;
4174;SDS011;2101;48.290;14.382;2023-05-10T04:14:05;13.57;;;2.03;;
4174;SDS011;2101;48.290;14.382;2023-05-10T04:16:31;16.90;;;2.13;;
4174;SDS011;2101;48.290;14.382;2023-05-10T04:18:57;29.93;;;2.30;;
4174;SDS011;2101;48.290;14.382;2023-05-10T04:21:24;14.73;;;1.83;;
4174;SDS011;2101;48.290;14.382;2023-05-10T04:23:51;14.13;;;2.03;;
4174;SDS011;2101;48.290;14.382;2023-05-10T04:26:19;13.37;;;2.00;;
4174;SDS011;2101;48.290;14.382;2023-05-10T04:28:45;15.10;;;2.93;;
4174;SDS011;2101;48.290;14.382;2023-05-10T04:31:11;13.73;;;2.17;;
4174;SDS011;2101;48.290;14.382;2023-05-10T04:33:37;19.60;;;2.63;;
4174;SDS011;2101;48.290;14.382;2023-05-10T04:36:04;14.17;;;2.17;;
4174;SDS011;2101;48.290;14.382;2023-05-10T04:38:30;27.13;;;3.23;;
4174;SDS011;2101;48.290;14.382;2023-05-10T04:41:09;14.43;;;1.90;;
4174;SDS011;2101;48.290;14.382;2023-05-10T04:43:35;13.90;;;2.30;;
4174;SDS011;2101;48.290;14.382;2023-05-10T04:46:01;20.57;;;2.53;;
4174;SDS011;2101;48.290;14.382;2023-05-10T04:48:27;17.33;;;2.33;;
4174;SDS011;2101;48.290;14.382;2023-05-10T04:50:54;14.37;;;2.33;;
4174;SDS011;2101;48.290;14.382;2023-05-10T04:53:20;15.47;;;2.20;;
4174;SDS011;2101;48.290;14.382;2023-05-10T04:55:46;14.20;;;2.00;;
4174;SDS011;2101;48.290;14.382;2023-05-10T04:58:13;14.07;;;2.43;;
4174;SDS011;2101;48.290;14.382;2023-05-10T05:00:39;13.73;;;2.37;;
4174;SDS011;2101;48.290;14.382;2023-05-10T05:03:05;16.67;;;2.87;;
4174;SDS011;2101;48.290;14.382;2023-05-10T05:05:31;13.37;;;2.07;;
4174;SDS011;2101;48.290;14.382;2023-05-10T05:07:57;13.87;;;2.07;;
4174;SDS011;2101;48.290;14.382;2023-05-10T05:10:24;14.77;;;1.93;;
4174;SDS011;2101;48.290;14.382;2023-05-10T05:12:50;13.10;;;2.23;;
4174;SDS011;2101;48.290;14.382;2023-05-10T05:15:16;15.43;;;2.30;;
4174;SDS011;2101;48.290;14.382;2023-05-10T05:17:42;13.13;;;1.93;;
4174;SDS011;2101;48.290;14.382;2023-05-10T05:20:09;15.47;;;2.40;;
4174;SDS011;2101;48.290;14.382;2023-05-10T05:22:36;14.63;;;2.40;;
4174;SDS011;2101;48.290;14.382;2023-05-10T05:25:02;13.90;;;1.80;;
4174;SDS011;2101;48.290;14.382;2023-05-10T05:27:29;17.73;;;2.40;;
4174;SDS011;2101;48.290;14.382;2023-05-10T05:29:55;14.10;;;2.40;;
4174;SDS011;2101;48.290;14.382;2023-05-10T05:32:22;14.03;;;2.30;;
4174;SDS011;2101;48.290;14.382;2023-05-10T05:34:48;14.23;;;1.97;;
4174;SDS011;2101;48.290;14.382;2023-05-10T05:37:15;16.47;;;2.50;;
4174;SDS011;2101;48.290;14.382;2023-05-10T05:39:42;14.10;;;2.13;;
4174;SDS011;2101;48.290;14.382;2023-05-10T05:42:08;17.20;;;2.50;;
4174;SDS011;2101;48.290;14.382;2023-05-10T05:44:35;15.40;;;1.83;;
4174;SDS011;2101;48.290;14.382;2023-05-10T05:47:01;13.57;;;2.03;;
4174;SDS011;2101;48.290;14.382;2023-05-10T05:49:27;14.73;;;1.87;;
4174;SDS011;2101;48.290;14.382;2023-05-10T05:51:59;14.87;;;2.50;;
4174;SDS011;2101;48.290;14.382;2023-05-10T05:54:26;16.40;;;2.70;;
4174;SDS011;2101;48.290;14.382;2023-05-10T05:56:55;14.30;;;2.20;;
4174;SDS011;2101;48.290;14.382;2023-05-10T05:59:21;15.00;;;2.30;;
4174;SDS011;2101;48.290;14.382;2023-05-10T06:01:48;17.10;;;2.30;;
4174;SDS011;2101;48.290;14.382;2023-05-10T06:04:14;14.07;;;2.20;;
4174;SDS011;2101;48.290;14.382;2023-05-10T06:06:43;21.40;;;2.60;;
4174;SDS011;2101;48.290;14.382;2023-05-10T06:09:10;14.50;;;2.40;;
4174;SDS011;2101;48.290;14.382;2023-05-10T06:11:36;15.07;;;2.30;;
4174;SDS011;2101;48.290;14.382;2023-05-10T06:14:03;16.00;;;3.07;;
4174;SDS011;2101;48.290;14.382;2023-05-10T06:16:30;17.77;;;2.60;;
4174;SDS011;2101;48.290;14.382;2023-05-10T06:18:56;27.47;;;2.60;;
4174;SDS011;2101;48.290;14.382;2023-05-10T06:21:22;14.40;;;2.30;;
4174;SDS011;2101;48.290;14.382;2023-05-10T06:23:49;22.03;;;2.10;;
4174;SDS011;2101;48.290;14.382;2023-05-10T06:26:15;21.03;;;2.47;;
4174;SDS011;2101;48.290;14.382;2023-05-10T06:28:41;15.50;;;1.63;;
4174;SDS011;2101;48.290;14.382;2023-05-10T06:31:08;14.13;;;2.10;;
4174;SDS011;2101;48.290;14.382;2023-05-10T06:33:34;17.40;;;2.30;;
4174;SDS011;2101;48.290;14.382;2023-05-10T06:36:00;15.00;;;2.30;;
4174;SDS011;2101;48.290;14.382;2023-05-10T06:38:27;14.70;;;2.40;;
4174;SDS011;2101;48.290;14.382;2023-05-10T06:40:53;13.60;;;2.00;;
4174;SDS011;2101;48.290;14.382;2023-05-10T06:43:19;17.13;;;2.90;;
4174;SDS011;2101;48.290;14.382;2023-05-10T06:45:45;15.70;;;2.90;;
4174;SDS011;2101;48.290;14.382;2023-05-10T06:48:12;14.80;;;2.30;;
4174;SDS011;2101;48.290;14.382;2023-05-10T06:50:38;14.40;;;2.00;;
4174;SDS011;2101;48.290;14.382;2023-05-10T06:53:04;13.80;;;2.10;;
4174;SDS011;2101;48.290;14.382;2023-05-10T06:55:37;13.97;;;2.20;;
4174;SDS011;2101;48.290;14.382;2023-05-10T06:58:03;13.60;;;2.20;;
4174;SDS011;2101;48.290;14.382;2023-05-10T07:00:30;13.40;;;2.33;;
4174;SDS011;2101;48.290;14.382;2023-05-10T07:03:05;16.47;;;2.70;;
4174;SDS011;2101;48.290;14.382;2023-05-10T07:05:32;16.30;;;2.50;;
4174;SDS011;2101;48.290;14.382;2023-05-10T07:07:58;16.10;;;2.57;;
4174;SDS011;2101;48.290;14.382;2023-05-10T07:10:25;20.10;;;2.60;;
4174;SDS011;2101;48.290;14.382;2023-05-10T07:12:51;25.73;;;2.90;;
4174;SDS011;2101;48.290;14.382;2023-05-10T07:15:17;17.47;;;2.90;;
4174;SDS011;2101;48.290;14.382;2023-05-10T07:17:44;17.20;;;2.80;;
4174;SDS011;2101;48.290;14.382;2023-05-10T07:20:11;26.60;;;2.80;;
4174;SDS011;2101;48.290;14.382;2023-05-10T07:22:37;20.67;;;2.60;;
4174;SDS011;2101;48.290;14.382;2023-05-10T07:25:03;14.13;;;2.30;;
4174;SDS011;2101;48.290;14.382;2023-05-10T07:27:30;14.60;;;2.57;;
4174;SDS011;2101;48.290;14.382;2023-05-10T07:29:58;16.17;;;2.80;;
4174;SDS011;2101;48.290;14.382;2023-05-10T07:32:25;14.40;;;2.47;;
4174;SDS011;2101;48.290;14.382;2023-05-10T07:34:51;16.07;;;2.90;;
4174;SDS011;2101;48.290;14.382;2023-05-10T07:37:25;16.63;;;2.70;;
4174;SDS011;2101;48.290;14.382;2023-05-10T07:39:51;16.80;;;3.57;;
4174;SDS011;2101;48.290;14.382;2023-05-10T07:42:17;17.10;;;3.23;;
4174;SDS011;2101;48.290;14.382;2023-05-10T07:44:43;16.00;;;2.80;;
4174;SDS011;2101;48.290;14.382;2023-05-10T07:47:10;15.63;;;3.03;;
4174;SDS011;2101;48.290;14.382;2023-05-10T07:49:36;20.93;;;3.70;;
4174;SDS011;2101;48.290;14.382;2023-05-10T07:52:03;19.20;;;3.40;;
4174;SDS011;2101;48.290;14.382;2023-05-10T07:54:29;16.93;;;2.90;;
4174;SDS011;2101;48.290;14.382;2023-05-10T07:56:55;16.93;;;3.60;;
4174;SDS011;2101;48.290;14.382;2023-05-10T07:59:21;16.60;;;3.50;;
4174;SDS011;2101;48.290;14.382;2023-05-10T08:01:47;15.90;;;3.60;;
4174;SDS011;2101;48.290;14.382;2023-05-10T08:04:14;23.80;;;4.80;;
4174;SDS011;2101;48.290;14.382;2023-05-10T08:06:40;16.30;;;3.43;;
4174;SDS011;2101;48.290;14.382;2023-05-10T08:09:06;16.30;;;3.57;;
4174;SDS011;2101;48.290;14.382;2023-05-10T08:11:32;22.47;;;3.57;;
4174;SDS011;2101;48.290;14.382;2023-05-10T08:13:59;15.83;;;3.17;;
4174;SDS011;2101;48.290;14.382;2023-05-10T08:16:25;15.20;;;3.27;;
4174;SDS011;2101;48.290;14.382;2023-05-10T08:18:51;17.87;;;3.40;;
4174;SDS011;2101;48.290;14.382;2023-05-10T08:21:18;17.87;;;3.10;;
4174;SDS011;2101;48.290;14.382;2023-05-10T08:23:44;15.57;;;3.10;;
4174;SDS011;2101;48.290;14.382;2023-05-10T08:26:10;14.57;;;2.87;;
4174;SDS011;2101;48.290;14.382;2023-05-10T08:28:44;23.40;;;4.20;;
4174;SDS011;2101;48.290;14.382;2023-05-10T08:31:14;16.77;;;3.63;;
4174;SDS011;2101;48.290;14.382;2023-05-10T08:33:41;16.83;;;2.80;;
4174;SDS011;2101;48.290;14.382;2023-05-10T08:36:07;16.17;;;3.40;;
4174;SDS011;2101;48.290;14.382;2023-05-10T08:38:33;16.00;;;3.07;;
4174;SDS011;2101;48.290;14.382;2023-05-10T08:40:59;15.87;;;3.37;;
4174;SDS011;2101;48.290;14.382;2023-05-10T08:43:28;23.43;;;3.90;;
4174;SDS011;2101;48.290;14.382;2023-05-10T08:45:59;23.67;;;3.47;;
4174;SDS011;2101;48.290;14.382;2023-05-10T08:48:29;16.03;;;3.70;;
4174;SDS011;2101;48.290;14.382;2023-05-10T08:50:56;15.70;;;3.30;;
4174;SDS011;2101;48.290;14.382;2023-05-10T08:53:24;15.30;;;3.07;;
4174;SDS011;2101;48.290;14.382;2023-05-10T08:55:51;17.43;;;3.43;;
4174;SDS011;2101;48.290;14.382;2023-05-10T08:58:18;17.50;;;3.70;;
4174;SDS011;2101;48.290;14.382;2023-05-10T09:00:45;15.87;;;3.37;;
4174;SDS011;2101;48.290;14.382;2023-05-10T09:03:11;15.10;;;3.03;;
4174;SDS011;2101;48.290;14.382;2023-05-10T09:05:39;17.73;;;3.00;;
4174;SDS011;2101;48.290;14.382;2023-05-10T09:08:06;17.23;;;3.40;;
4174;SDS011;2101;48.290;14.382;2023-05-10T09:10:33;17.03;;;3.07;;
4174;SDS011;2101;48.290;14.382;2023-05-10T09:31:16;18.93;;;3.80;;
4174;SDS011;2101;48.290;14.382;2023-05-10T09:33:54;17.93;;;3.83;;
4174;SDS011;2101;48.290;14.382;2023-05-10T09:36:58;17.50;;;3.73;;
4174;SDS011;2101;48.290;14.382;2023-05-10T09:39:38;17.87;;;3.70;;
4174;SDS011;2101;48.290;14.382;2023-05-10T09:42:09;16.13;;;3.33;;
4174;SDS011;2101;48.290;14.382;2023-05-10T09:44:36;16.57;;;3.83;;
4174;SDS011;2101;48.290;14.382;2023-05-10T09:47:03;16.57;;;3.90;;
4174;SDS011;2101;48.290;14.382;2023-05-10T09:49:34;14.50;;;2.50;;
4174;SDS011;2101;48.290;14.382;2023-05-10T09:52:04;16.90;;;3.40;;
4174;SDS011;2101;48.290;14.382;2023-05-10T09:54:31;18.67;;;3.67;;
4174;SDS011;2101;48.290;14.382;2023-05-10T09:57:00;19.30;;;4.00;;
4174;SDS011;2101;48.290;14.382;2023-05-10T09:59:32;21.80;;;3.30;;
4174;SDS011;2101;48.290;14.382;2023-05-10T10:02:18;15.03;;;2.97;;
4174;SDS011;2101;48.290;14.382;2023-05-10T10:04:49;15.37;;;2.97;;
4174;SDS011;2101;48.290;14.382;2023-05-10T10:25:36;19.30;;;3.33;;
4174;SDS011;2101;48.290;14.382;2023-05-10T10:30:41;17.53;;;3.93;;
4174;SDS011;2101;48.290;14.382;2023-05-10T10:35:53;19.23;;;3.77;;
4174;SDS011;2101;48.290;14.382;2023-05-10T10:38:23;16.97;;;3.43;;
4174;SDS011;2101;48.290;14.382;2023-05-10T10:41:01;16.03;;;3.10;;
4174;SDS011;2101;48.290;14.382;2023-05-10T10:43:35;19.60;;;3.73;;
4174;SDS011;2101;48.290;14.382;2023-05-10T10:46:13;16.50;;;3.57;;
4174;SDS011;2101;48.290;14.382;2023-05-10T10:48:40;16.97;;;4.03;;
4174;SDS011;2101;48.290;14.382;2023-05-10T10:51:07;18.40;;;4.00;;
4174;SDS011;2101;48.290;14.382;2023-05-10T10:53:33;14.77;;;3.10;;
4174;SDS011;2101;48.290;14.382;2023-05-10T10:56:10;16.93;;;3.10;;
4174;SDS011;2101;48.290;14.382;2023-05-10T10:58:39;15.47;;;3.17;;
4174;SDS011;2101;48.290;14.382;2023-05-10T11:01:10;15.90;;;3.30;;
4174;SDS011;2101;48.290;14.382;2023-05-10T11:03:37;15.67;;;3.50;;
4174;SDS011;2101;48.290;14.382;2023-05-10T11:06:03;16.80;;;3.40;;
4174;SDS011;2101;48.290;14.382;2023-05-10T11:08:30;18.23;;;3.70;;
4174;SDS011;2101;48.290;14.382;2023-05-10T11:13:28;16.33;;;3.63;;
4174;SDS011;2101;48.290;14.382;2023-05-10T11:15:54;16.80;;;3.63;;
4174;SDS011;2101;48.290;14.382;2023-05-10T11:18:31;24.83;;;4.07;;
4174;SDS011;2101;48.290;14.382;2023-05-10T11:21:01;17.33;;;3.93;;
4174;SDS011;2101;48.290;14.382;2023-05-10T11:23:54;26.63;;;4.33;;
4174;SDS011;2101;48.290;14.382;2023-05-10T11:26:17;16.60;;;4.33;;
4174;SDS011;2101;48.290;14.382;2023-05-10T11:28:44;15.97;;;3.80;;
4174;SDS011;2101;48.290;14.382;2023-05-10T11:31:10;19.43;;;3.13;;
4174;SDS011;2101;48.290;14.382;2023-05-10T11:33:45;16.20;;;3.77;;
4174;SDS011;2101;48.290;14.382;2023-05-10T11:36:14;22.00;;;4.60;;
4174;SDS011;2101;48.290;14.382;2023-05-10T11:38:41;15.67;;;3.53;;
4174;SDS011;2101;48.290;14.382;2023-05-10T11:41:10;15.60;;;3.20;;
4174;SDS011;2101;48.290;14.382;2023-05-10T11:43:40;17.43;;;3.93;;
4174;SDS011;2101;48.290;14.382;2023-05-10T11:46:07;15.30;;;3.30;;
4174;SDS011;2101;48.290;14.382;2023-05-10T11:48:34;17.10;;;3.30;;
4174;SDS011;2101;48.290;14.382;2023-05-10T11:51:00;17.70;;;3.50;;
4174;SDS011;2101;48.290;14.382;2023-05-10T11:53:27;20.33;;;4.00;;
4174;SDS011;2101;48.290;14.382;2023-05-10T11:55:53;15.80;;;3.40;;
4174;SDS011;2101;48.290;14.382;2023-05-10T11:58:19;16.27;;;3.63;;
4174;SDS011;2101;48.290;14.382;2023-05-10T12:00:47;17.10;;;3.80;;
4174;SDS011;2101;48.290;14.382;2023-05-10T12:03:19;18.03;;;3.67;;
4174;SDS011;2101;48.290;14.382;2023-05-10T12:05:46;18.20;;;4.43;;
4174;SDS011;2101;48.290;14.382;2023-05-10T12:08:15;17.17;;;4.17;;
4174;SDS011;2101;48.290;14.382;2023-05-10T12:10:41;17.53;;;3.73;;
4174;SDS011;2101;48.290;14.382;2023-05-10T12:13:14;17.70;;;4.00;;
4174;SDS011;2101;48.290;14.382;2023-05-10T12:15:40;16.20;;;3.80;;
4174;SDS011;2101;48.290;14.382;2023-05-10T12:18:10;17.53;;;4.10;;
4174;SDS011;2101;48.290;14.382;2023-05-10T12:20:36;16.20;;;3.50;;
4174;SDS011;2101;48.290;14.382;2023-05-10T12:23:09;18.73;;;4.00;;
4174;SDS011;2101;48.290;14.382;2023-05-10T12:25:36;16.33;;;3.70;;
4174;SDS011;2101;48.290;14.382;2023-05-10T12:28:04;16.67;;;4.00;;
4174;SDS011;2101;48.290;14.382;2023-05-10T12:30:31;17.40;;;4.40;;
4174;SDS011;2101;48.290;14.382;2023-05-10T12:33:07;17.70;;;3.90;;
4174;SDS011;2101;48.290;14.382;2023-05-10T12:35:43;19.07;;;4.13;;
4174;SDS011;2101;48.290;14.382;2023-05-10T12:40:59;16.40;;;3.60;;
4174;SDS011;2101;48.290;14.382;2023-05-10T12:43:25;17.20;;;4.33;;
4174;SDS011;2101;48.290;14.382;2023-05-10T12:45:52;15.97;;;3.47;;
4174;SDS011;2101;48.290;14.382;2023-05-10T12:48:18;23.23;;;3.90;;
4174;SDS011;2101;48.290;14.382;2023-05-10T12:50:52;19.23;;;4.07;;
4174;SDS011;2101;48.290;14.382;2023-05-10T12:53:18;18.60;;;3.70;;
4174;SDS011;2101;48.290;14.382;2023-05-10T12:55:44;16.00;;;3.30;;
4174;SDS011;2101;48.290;14.382;2023-05-10T12:58:10;18.53;;;3.27;;
4174;SDS011;2101;48.290;14.382;2023-05-10T13:00:37;16.90;;;3.63;;
4174;SDS011;2101;48.290;14.382;2023-05-10T13:03:04;31.50;;;3.80;;
4174;SDS011;2101;48.290;14.382;2023-05-10T13:05:33;18.37;;;3.67;;
4174;SDS011;2101;48.290;14.382;2023-05-10T13:07:59;16.43;;;3.87;;
4174;SDS011;2101;48.290;14.382;2023-05-10T13:10:25;14.77;;;2.90;;
4174;SDS011;2101;48.290;14.382;2023-05-10T13:12:51;16.27;;;3.20;;
4174;SDS011;2101;48.290;14.382;2023-05-10T13:15:18;15.63;;;3.33;;
4174;SDS011;2101;48.290;14.382;2023-05-10T13:17:49;16.90;;;3.57;;
4174;SDS011;2101;48.290;14.382;2023-05-10T13:20:15;16.97;;;3.77;;
4174;SDS011;2101;48.290;14.382;2023-05-10T13:22:42;16.60;;;3.80;;
4174;SDS011;2101;48.290;14.382;2023-05-10T13:25:09;17.90;;;3.63;;
4174;SDS011;2101;48.290;14.382;2023-05-10T13:27:35;16.97;;;3.80;;
4174;SDS011;2101;48.290;14.382;2023-05-10T13:30:02;15.87;;;3.13;;
4174;SDS011;2101;48.290;14.382;2023-05-10T13:32:29;16.87;;;3.50;;
4174;SDS011;2101;48.290;14.382;2023-05-10T13:34:55;16.00;;;3.53;;
4174;SDS011;2101;48.290;14.382;2023-05-10T13:37:21;18.20;;;4.13;;
4174;SDS011;2101;48.290;14.382;2023-05-10T13:39:48;15.70;;;3.63;;
4174;SDS011;2101;48.290;14.382;2023-05-10T13:42:14;18.57;;;3.70;;
4174;SDS011;2101;48.290;14.382;2023-05-10T13:44:40;16.53;;;3.83;;
4174;SDS011;2101;48.290;14.382;2023-05-10T13:47:06;16.43;;;4.40;;
4174;SDS011;2101;48.290;14.382;2023-05-10T13:49:32;25.23;;;4.73;;
4174;SDS011;2101;48.290;14.382;2023-05-10T13:52:01;15.93;;;3.57;;
4174;SDS011;2101;48.290;14.382;2023-05-10T13:54:32;16.17;;;3.20;;
4174;SDS011;2101;48.290;14.382;2023-05-10T13:56:58;17.97;;;4.23;;
4174;SDS011;2101;48.290;14.382;2023-05-10T13:59:24;17.00;;;3.60;;
4174;SDS011;2101;48.290;14.382;2023-05-10T14:01:50;16.90;;;3.90;;
4174;SDS011;2101;48.290;14.382;2023-05-10T14:04:16;16.53;;;3.80;;
4174;SDS011;2101;48.290;14.382;2023-05-10T14:06:49;15.97;;;3.27;;
4174;SDS011;2101;48.290;14.382;2023-05-10T14:09:16;20.37;;;4.37;;
4174;SDS011;2101;48.290;14.382;2023-05-10T14:11:42;16.13;;;3.30;;
4174;SDS011;2101;48.290;14.382;2023-05-10T14:14:10;15.83;;;3.20;;
4174;SDS011;2101;48.290;14.382;2023-05-10T14:16:36;15.63;;;3.10;;
4174;SDS011;2101;48.290;14.382;2023-05-10T14:19:02;14.93;;;2.80;;
4174;SDS011;2101;48.290;14.382;2023-05-10T14:21:28;14.93;;;2.70;;
4174;SDS011;2101;48.290;14.382;2023-05-10T14:23:56;16.30;;;3.30;;
4174;SDS011;2101;48.290;14.382;2023-05-10T14:26:22;16.10;;;3.30;;
4174;SDS011;2101;48.290;14.382;2023-05-10T14:28:48;13.77;;;2.30;;
4174;SDS011;2101;48.290;14.382;2023-05-10T14:31:14;18.00;;;3.00;;
4174;SDS011;2101;48.290;14.382;2023-05-10T14:33:41;19.30;;;3.10;;
4174;SDS011;2101;48.290;14.382;2023-05-10T14:36:08;19.90;;;2.93;;
4174;SDS011;2101;48.290;14.382;2023-05-10T14:38:34;15.40;;;3.00;;
4174;SDS011;2101;48.290;14.382;2023-05-10T14:41:00;16.30;;;3.27;;
4174;SDS011;2101;48.290;14.382;2023-05-10T14:43:26;14.80;;;2.77;;
4174;SDS011;2101;48.290;14.382;2023-05-10T14:45:53;17.33;;;2.83;;
4174;SDS011;2101;48.290;14.382;2023-05-10T14:48:22;15.13;;;3.03;;
4174;SDS011;2101;48.290;14.382;2023-05-10T14:50:48;18.17;;;3.40;;
4174;SDS011;2101;48.290;14.382;2023-05-10T14:53:15;15.60;;;2.77;;
4174;SDS011;2101;48.290;14.382;2023-05-10T14:55:41;25.73;;;2.70;;
4174;SDS011;2101;48.290;14.382;2023-05-10T14:58:07;14.73;;;2.70;;
4174;SDS011;2101;48.290;14.382;2023-05-10T15:00:33;16.30;;;3.23;;
4174;SDS011;2101;48.290;14.382;2023-05-10T15:02:59;15.80;;;3.27;;
4174;SDS011;2101;48.290;14.382;2023-05-10T15:05:25;15.47;;;3.13;;
4174;SDS011;2101;48.290;14.382;2023-05-10T15:07:54;17.43;;;3.27;;
4174;SDS011;2101;48.290;14.382;2023-05-10T15:10:23;15.27;;;2.83;;
4174;SDS011;2101;48.290;14.382;2023-05-10T15:12:50;16.40;;;3.27;;
4174;SDS011;2101;48.290;14.382;2023-05-10T15:15:19;16.37;;;3.73;;
4174;SDS011;2101;48.290;14.382;2023-05-10T15:17:47;16.77;;;3.60;;
4174;SDS011;2101;48.290;14.382;2023-05-10T15:20:13;16.30;;;3.70;;
4174;SDS011;2101;48.290;14.382;2023-05-10T15:22:39;17.30;;;3.97;;
4174;SDS011;2101;48.290;14.382;2023-05-10T15:25:06;16.87;;;3.60;;
4174;SDS011;2101;48.290;14.382;2023-05-10T15:27:32;19.57;;;4.20;;
4174;SDS011;2101;48.290;14.382;2023-05-10T15:29:59;16.20;;;3.50;;
4174;SDS011;2101;48.290;14.382;2023-05-10T15:32:25;17.20;;;3.67;;
4174;SDS011;2101;48.290;14.382;2023-05-10T15:34:54;21.10;;;4.87;;
4174;SDS011;2101;48.290;14.382;2023-05-10T15:37:21;19.07;;;4.10;;
4174;SDS011;2101;48.290;14.382;2023-05-10T15:39:48;30.20;;;4.00;;
4174;SDS011;2101;48.290;14.382;2023-05-10T15:42:17;16.93;;;3.70;;
4174;SDS011;2101;48.290;14.382;2023-05-10T15:44:44;18.77;;;5.00;;
4174;SDS011;2101;48.290;14.382;2023-05-10T15:47:15;17.50;;;4.20;;
4174;SDS011;2101;48.290;14.382;2023-05-10T15:49:46;17.03;;;4.40;;
4174;SDS011;2101;48.290;14.382;2023-05-10T15:52:13;18.50;;;4.90;;
4174;SDS011;2101;48.290;14.382;2023-05-10T15:54:41;17.23;;;4.00;;
4174;SDS011;2101;48.290;14.382;2023-05-10T15:57:07;16.70;;;3.83;;
4174;SDS011;2101;48.290;14.382;2023-05-10T15:59:33;16.20;;;3.47;;
4174;SDS011;2101;48.290;14.382;2023-05-10T16:01:59;18.40;;;4.60;;
4174;SDS011;2101;48.290;14.382;2023-05-10T16:04:28;16.37;;;3.70;;
4174;SDS011;2101;48.290;14.382;2023-05-10T16:06:54;18.20;;;4.60;;